createdAt,value
2017-12-19T00:00:28.027Z,84.60
2017-12-19T00:02:56.196Z,86.60
2017-12-19T00:05:24.379Z,85.80
2017-12-19T00:07:52.550Z,86.20
2017-12-19T00:10:26.429Z,86.60
2017-12-19T00:12:54.584Z,86.70
2017-12-19T00:15:22.790Z,86.60
2017-12-19T00:17:50.936Z,86.70
2017-12-19T00:20:19.090Z,87.60
2017-12-19T00:22:47.232Z,87.00
2017-12-19T00:25:15.484Z,87.60
2017-12-19T00:27:43.642Z,88.40
2017-12-19T00:30:11.805Z,89.00
2017-12-19T00:32:39.969Z,89.00
2017-12-19T00:35:08.176Z,88.80
2017-12-19T00:37:36.332Z,88.60
2017-12-19T00:40:04.678Z,89.10
2017-12-19T00:42:32.833Z,89.10
2017-12-19T00:45:01.098Z,88.50
2017-12-19T00:47:29.251Z,88.00
2017-12-19T00:49:57.411Z,86.90
2017-12-19T00:52:25.556Z,85.10
2017-12-19T00:54:54.690Z,85.20
2017-12-19T00:57:22.851Z,84.60
2017-12-19T00:59:50.994Z,83.70
2017-12-19T01:02:19.142Z,85.60
2017-12-19T01:04:47.391Z,85.20
2017-12-19T01:07:15.536Z,87.20
2017-12-19T01:09:43.687Z,88.60
2017-12-19T01:12:11.836Z,89.10
2017-12-19T01:14:40.097Z,89.60
2017-12-19T01:17:08.630Z,90.10
2017-12-19T01:19:36.787Z,90.40
2017-12-19T01:22:05.798Z,90.80
2017-12-19T01:24:34.010Z,90.60
2017-12-19T01:27:02.146Z,90.00
2017-12-19T01:29:30.321Z,88.80
2017-12-19T01:31:58.495Z,87.50
2017-12-19T01:34:26.696Z,88.70
2017-12-19T01:36:54.841Z,88.80
2017-12-19T01:39:22.998Z,87.50
2017-12-19T01:41:51.218Z,87.20
2017-12-19T01:44:19.374Z,87.50
2017-12-19T01:46:48.416Z,87.40
2017-12-19T01:49:16.566Z,87.10
2017-12-19T01:51:44.737Z,86.80
2017-12-19T01:54:13.668Z,84.90
2017-12-19T01:56:41.834Z,85.20
2017-12-19T01:59:09.991Z,86.20
2017-12-19T02:01:38.148Z,86.20
2017-12-19T02:04:06.306Z,85.00
2017-12-19T02:06:34.477Z,86.20
2017-12-19T02:09:02.661Z,86.30
2017-12-19T02:11:30.821Z,85.70
2017-12-19T02:13:58.984Z,86.70
2017-12-19T02:16:27.160Z,87.80
2017-12-19T02:18:55.319Z,88.30
2017-12-19T02:21:23.710Z,89.20
2017-12-19T02:23:51.852Z,89.30
2017-12-19T02:26:20.121Z,88.00
2017-12-19T02:28:48.269Z,86.80
2017-12-19T02:31:17.194Z,85.10
2017-12-19T02:33:45.339Z,85.10
2017-12-19T02:36:14.258Z,86.60
2017-12-19T02:38:42.416Z,86.60
2017-12-19T02:41:10.579Z,87.70
2017-12-19T02:43:38.733Z,88.20
2017-12-19T02:46:06.943Z,89.40
2017-12-19T02:48:35.100Z,90.40
2017-12-19T02:51:04.033Z,90.50
2017-12-19T02:53:32.198Z,90.40
2017-12-19T02:56:00.461Z,89.90
2017-12-19T02:58:28.626Z,89.60
2017-12-19T03:00:57.545Z,88.30
2017-12-19T03:03:25.700Z,88.30
2017-12-19T03:05:53.977Z,88.20
2017-12-19T03:08:22.132Z,87.90
2017-12-19T03:10:50.296Z,86.30
2017-12-19T03:13:18.477Z,86.20
2017-12-19T03:15:47.486Z,85.60
2017-12-19T03:18:15.730Z,85.60
2017-12-19T03:20:43.886Z,85.70
2017-12-19T03:23:12.040Z,85.80
2017-12-19T03:25:40.200Z,86.10
2017-12-19T03:28:09.164Z,86.70
2017-12-19T03:30:38.085Z,87.10
2017-12-19T03:33:06.239Z,87.10
2017-12-19T03:35:34.518Z,86.60
2017-12-19T03:38:02.666Z,87.70
2017-12-19T03:40:30.818Z,86.80
2017-12-19T03:42:58.978Z,86.00
2017-12-19T03:45:27.200Z,85.90
2017-12-19T03:47:56.124Z,84.60
2017-12-19T03:50:24.282Z,84.60
2017-12-19T03:52:52.437Z,84.80
2017-12-19T03:55:20.971Z,84.80
2017-12-19T03:57:49.139Z,84.90
2017-12-19T04:00:17.286Z,83.80
2017-12-19T04:02:45.423Z,84.00
2017-12-19T04:05:13.645Z,83.20
2017-12-19T04:07:41.801Z,85.60
2017-12-19T04:10:10.722Z,87.50
2017-12-19T04:12:38.867Z,87.50
2017-12-19T04:15:07.133Z,89.60
2017-12-19T04:17:35.358Z,88.40
2017-12-19T04:20:03.494Z,88.00
2017-12-19T04:22:31.641Z,88.00
2017-12-19T04:24:59.829Z,86.50
2017-12-19T04:27:27.997Z,86.10
2017-12-19T04:29:56.920Z,88.70
2017-12-19T04:32:25.062Z,88.70
2017-12-19T04:34:54.168Z,88.90
2017-12-19T04:37:22.419Z,86.70
2017-12-19T04:39:50.589Z,87.10
2017-12-19T04:42:18.758Z,88.60
2017-12-19T04:44:51.462Z,88.50
2017-12-19T04:47:20.694Z,90.10
2017-12-19T04:49:48.956Z,89.50
2017-12-19T04:52:17.116Z,87.60
2017-12-19T04:54:46.128Z,85.40
2017-12-19T04:57:16.193Z,85.40
2017-12-19T04:59:44.422Z,84.60
2017-12-19T05:02:13.292Z,84.90
2017-12-19T05:04:42.310Z,84.10
2017-12-19T05:07:10.704Z,84.10
2017-12-19T05:09:38.868Z,84.20
2017-12-19T05:12:07.029Z,81.00
2017-12-19T05:14:36.225Z,82.40
2017-12-19T05:17:05.152Z,84.30
2017-12-19T05:19:33.304Z,84.40
2017-12-19T05:22:01.500Z,85.80
2017-12-19T05:24:29.750Z,83.60
2017-12-19T05:26:57.901Z,85.40
2017-12-19T05:29:26.839Z,84.50
2017-12-19T05:31:54.998Z,84.40
2017-12-19T05:34:23.261Z,85.10
2017-12-19T05:36:51.445Z,82.60
2017-12-19T05:39:19.606Z,84.00
2017-12-19T05:41:47.762Z,85.00
2017-12-19T05:44:16.697Z,84.20
2017-12-19T05:46:44.881Z,84.20
2017-12-19T05:49:13.045Z,83.30
2017-12-19T05:51:41.964Z,85.30
2017-12-19T05:54:10.112Z,85.40
2017-12-19T05:56:38.287Z,85.20
2017-12-19T05:59:06.434Z,85.10
2017-12-19T06:01:34.735Z,86.20
2017-12-19T06:04:02.906Z,84.90
2017-12-19T06:06:31.068Z,85.50
2017-12-19T06:08:59.233Z,84.90
2017-12-19T06:17:29.374Z,85.30
2017-12-19T06:19:58.682Z,83.80
2017-12-19T06:22:27.583Z,85.10
2017-12-19T06:24:55.762Z,85.20
2017-12-19T06:27:23.927Z,85.00
2017-12-19T06:29:52.842Z,85.30
2017-12-19T06:32:21.138Z,85.40
2017-12-19T06:34:55.705Z,85.20
2017-12-19T06:37:23.861Z,84.70
2017-12-19T06:39:52.193Z,85.80
2017-12-19T06:42:20.352Z,86.60
2017-12-19T06:44:54.741Z,83.60
2017-12-19T06:47:23.568Z,83.20
2017-12-19T06:49:51.715Z,83.70
2017-12-19T06:52:20.636Z,83.00
2017-12-19T06:54:49.602Z,81.70
2017-12-19T06:57:18.512Z,81.50
2017-12-19T06:59:46.679Z,81.50
2017-12-19T07:02:15.784Z,82.60
2017-12-19T07:04:43.937Z,82.30
2017-12-19T07:07:12.100Z,82.80
2017-12-19T07:09:40.286Z,81.70
2017-12-19T07:12:08.422Z,83.70
2017-12-19T07:14:36.648Z,84.10
2017-12-19T07:17:04.800Z,82.70
2017-12-19T07:19:33.732Z,83.50
2017-12-19T07:22:01.890Z,83.50
2017-12-19T07:24:30.160Z,82.80
2017-12-19T07:26:58.311Z,82.50
2017-12-19T07:29:26.490Z,80.30
2017-12-19T07:31:54.677Z,80.40
2017-12-19T07:34:23.790Z,79.60
2017-12-19T07:36:51.934Z,79.60
2017-12-19T07:39:20.094Z,78.00
2017-12-19T07:41:48.266Z,79.00
2017-12-19T07:44:16.454Z,76.60
2017-12-19T07:46:45.411Z,76.60
2017-12-19T07:49:13.559Z,80.70
2017-12-19T07:51:41.821Z,82.00
2017-12-19T07:54:09.981Z,81.60
2017-12-19T07:56:39.769Z,83.80
2017-12-19T07:59:08.061Z,83.80
2017-12-19T08:01:36.206Z,85.10
2017-12-19T08:04:04.367Z,83.80
2017-12-19T08:06:32.536Z,83.30
2017-12-19T08:09:00.690Z,83.80
2017-12-19T08:11:28.842Z,83.10
2017-12-19T08:13:57.607Z,82.70
2017-12-19T08:16:25.762Z,83.30
2017-12-19T08:18:53.910Z,82.40
2017-12-19T08:21:22.059Z,79.90
2017-12-19T08:23:50.216Z,77.60
2017-12-19T08:26:19.136Z,74.70
2017-12-19T08:28:47.298Z,74.70
2017-12-19T08:31:15.449Z,73.80
2017-12-19T08:33:43.609Z,74.90
2017-12-19T08:36:11.826Z,78.00
2017-12-19T08:38:39.976Z,78.00
2017-12-19T08:41:08.890Z,80.60
2017-12-19T08:43:37.040Z,80.50
2017-12-19T08:46:05.345Z,78.10
2017-12-19T08:48:33.513Z,76.40
2017-12-19T08:51:01.674Z,78.30
2017-12-19T08:53:29.821Z,76.90
2017-12-19T08:55:58.032Z,75.30
2017-12-19T08:58:26.210Z,73.60
2017-12-19T09:00:54.408Z,75.70
2017-12-19T09:03:22.556Z,76.00
2017-12-19T09:05:50.717Z,74.70
2017-12-19T09:08:18.892Z,75.30
2017-12-19T09:10:47.810Z,74.30
2017-12-19T09:13:16.091Z,74.90
2017-12-19T09:15:47.994Z,72.80
2017-12-19T09:18:16.162Z,75.10
2017-12-19T09:20:44.310Z,73.70
2017-12-19T09:23:12.480Z,72.80
2017-12-19T09:25:41.438Z,76.70
2017-12-19T09:28:09.603Z,76.70
2017-12-19T09:30:38.522Z,74.70
2017-12-19T09:33:06.690Z,74.70
2017-12-19T09:35:34.978Z,76.70
2017-12-19T09:38:03.137Z,80.40
2017-12-19T09:40:31.290Z,77.90
2017-12-19T09:42:59.441Z,81.10
2017-12-19T09:45:27.688Z,82.30
2017-12-19T09:47:55.845Z,82.70
2017-12-19T09:50:24.058Z,83.40
2017-12-19T09:52:52.223Z,84.30
2017-12-19T09:55:21.282Z,84.30
2017-12-19T09:57:49.679Z,84.90
2017-12-19T10:00:17.857Z,82.00
2017-12-19T10:02:46.029Z,82.10
2017-12-19T10:05:14.283Z,80.90
2017-12-19T10:07:42.451Z,81.90
2017-12-19T10:10:10.608Z,81.20
2017-12-19T10:12:39.552Z,81.10
2017-12-19T10:15:08.208Z,81.20
2017-12-19T10:17:36.373Z,80.80
2017-12-19T10:20:05.297Z,83.40
2017-12-19T10:22:34.034Z,84.20
2017-12-19T10:25:08.352Z,82.10
2017-12-19T10:27:36.552Z,80.90
2017-12-19T10:30:04.749Z,78.50
2017-12-19T10:32:32.918Z,78.50
2017-12-19T10:35:01.157Z,78.60
2017-12-19T10:37:29.365Z,75.20
2017-12-19T10:39:57.523Z,74.30
2017-12-19T10:42:25.685Z,71.10
2017-12-19T10:44:55.720Z,68.10
2017-12-19T10:47:24.499Z,68.00
2017-12-19T10:49:52.648Z,66.90
2017-12-19T10:52:20.785Z,68.90
2017-12-19T10:54:50.073Z,71.60
2017-12-19T10:57:18.240Z,72.00
2017-12-19T10:59:46.394Z,70.90
2017-12-19T11:02:15.287Z,69.70
2017-12-19T11:04:43.577Z,70.90
2017-12-19T11:07:11.731Z,69.70
2017-12-19T11:09:39.881Z,68.00
2017-12-19T11:12:08.042Z,66.80
2017-12-19T11:14:36.253Z,64.80
2017-12-19T11:17:04.405Z,62.00
2017-12-19T11:19:32.565Z,64.90
2017-12-19T11:22:00.717Z,65.60
2017-12-19T11:24:28.945Z,65.20
2017-12-19T11:26:57.106Z,62.70
2017-12-19T11:29:26.018Z,63.60
2017-12-19T11:31:54.181Z,63.70
2017-12-19T11:34:24.109Z,63.80
2017-12-19T11:36:52.280Z,63.80
2017-12-19T11:39:20.444Z,64.10
2017-12-19T11:41:48.596Z,66.10
2017-12-19T11:44:16.752Z,65.20
2017-12-19T11:46:44.909Z,62.30
2017-12-19T11:49:13.071Z,62.10
2017-12-19T11:51:41.245Z,63.80
2017-12-19T11:54:09.404Z,63.90
2017-12-19T11:56:37.550Z,64.50
2017-12-19T11:59:05.706Z,64.60
2017-12-19T12:01:34.487Z,64.30
2017-12-19T12:04:02.638Z,65.80
2017-12-19T12:06:30.818Z,66.50
2017-12-19T12:08:58.972Z,65.00
2017-12-19T12:11:27.149Z,67.60
2017-12-19T12:13:55.303Z,64.20
2017-12-19T12:16:23.448Z,66.80
2017-12-19T12:18:51.598Z,65.20
2017-12-19T12:21:19.745Z,67.20
2017-12-19T12:23:47.906Z,62.10
2017-12-19T12:26:16.081Z,61.10
2017-12-19T12:28:44.249Z,62.90
2017-12-19T12:31:12.422Z,66.00
2017-12-19T12:33:40.591Z,65.50
2017-12-19T12:36:08.768Z,63.40
2017-12-19T12:38:36.932Z,62.40
2017-12-19T12:41:05.910Z,65.30
2017-12-19T12:43:34.061Z,65.30
2017-12-19T12:46:02.278Z,59.90
2017-12-19T12:48:31.194Z,60.50
2017-12-19T12:50:59.345Z,60.50
2017-12-19T12:53:28.261Z,63.30
2017-12-19T12:56:00.464Z,63.30
2017-12-19T12:58:29.604Z,63.40
2017-12-19T13:00:57.773Z,64.30
2017-12-19T13:03:25.938Z,64.00
2017-12-19T13:05:54.854Z,67.80
2017-12-19T13:08:22.994Z,67.80
2017-12-19T13:10:51.210Z,66.60
2017-12-19T13:13:19.367Z,67.90
2017-12-19T13:15:53.549Z,67.40
2017-12-19T13:18:22.786Z,69.30
2017-12-19T13:20:50.945Z,68.70
2017-12-19T13:23:19.864Z,71.50
2017-12-19T13:25:52.521Z,71.50
2017-12-19T13:28:20.801Z,72.70
2017-12-19T13:30:49.200Z,70.80
2017-12-19T13:33:17.361Z,71.60
2017-12-19T13:35:45.632Z,70.70
2017-12-19T13:38:14.036Z,69.50
2017-12-19T13:40:42.185Z,68.00
2017-12-19T13:43:10.352Z,69.30
2017-12-19T13:45:38.526Z,69.80
2017-12-19T13:48:06.686Z,72.30
2017-12-19T13:50:34.841Z,71.70
2017-12-19T13:53:03.002Z,73.20
2017-12-19T13:55:31.229Z,72.60
2017-12-19T13:57:59.374Z,73.90
2017-12-19T14:00:27.526Z,74.50
2017-12-19T14:02:56.942Z,72.10
2017-12-19T14:05:25.155Z,72.40
2017-12-19T14:07:53.329Z,69.10
2017-12-19T14:10:21.493Z,67.10
2017-12-19T14:12:49.665Z,70.60
2017-12-19T14:15:18.668Z,64.50
2017-12-19T14:17:46.841Z,63.80
2017-12-19T14:20:15.641Z,65.90
2017-12-19T14:22:44.525Z,69.30
2017-12-19T14:25:12.796Z,64.40
2017-12-19T14:27:41.411Z,66.90
2017-12-19T14:30:09.597Z,72.70
2017-12-19T14:32:37.746Z,73.70
2017-12-19T14:35:10.598Z,63.20
2017-12-19T14:37:38.784Z,63.90
2017-12-19T14:40:13.800Z,75.30
2017-12-19T14:42:41.958Z,75.30
2017-12-19T14:45:10.993Z,75.60
2017-12-19T14:47:39.178Z,76.70
2017-12-19T14:50:07.396Z,76.80
2017-12-19T14:52:35.554Z,77.80
2017-12-19T14:55:03.810Z,73.00
2017-12-19T14:57:32.035Z,75.70
2017-12-19T15:00:00.158Z,77.90
2017-12-19T15:02:28.743Z,79.00
2017-12-19T15:05:00.613Z,76.10
2017-12-19T15:07:28.861Z,73.50
2017-12-19T15:09:57.010Z,74.60
2017-12-19T15:12:25.938Z,74.90
2017-12-19T15:15:02.375Z,74.90
2017-12-19T15:17:32.432Z,76.30
2017-12-19T15:20:00.590Z,76.20
2017-12-19T15:22:29.035Z,75.70
2017-12-19T15:24:58.119Z,73.60
2017-12-19T15:27:26.644Z,76.70
2017-12-19T15:29:55.581Z,78.10
2017-12-19T15:32:25.073Z,78.90
2017-12-19T15:34:54.249Z,78.20
2017-12-19T15:37:22.393Z,78.30
2017-12-19T15:39:51.341Z,73.00
2017-12-19T15:42:19.504Z,75.60
2017-12-19T15:44:47.752Z,78.10
2017-12-19T15:47:16.968Z,80.70
2017-12-19T15:49:46.029Z,81.10
2017-12-19T15:52:14.668Z,81.40
2017-12-19T15:54:42.909Z,81.70
2017-12-19T15:57:11.994Z,78.90
2017-12-19T15:59:40.336Z,80.50
2017-12-19T16:02:08.485Z,82.30
2017-12-19T16:04:36.625Z,81.40
2017-12-19T16:07:04.880Z,82.40
2017-12-19T16:09:33.129Z,83.20
2017-12-19T16:12:01.832Z,84.90
2017-12-19T16:14:29.984Z,84.50
2017-12-19T16:16:58.145Z,84.30
2017-12-19T16:19:26.297Z,83.70
2017-12-19T16:21:54.453Z,83.50
2017-12-19T16:24:22.635Z,83.90
2017-12-19T16:26:50.781Z,83.80
2017-12-19T16:29:19.705Z,80.10
2017-12-19T16:31:47.877Z,79.40
2017-12-19T16:34:17.168Z,81.40
2017-12-19T16:36:45.328Z,81.80
2017-12-19T16:39:14.252Z,83.40
2017-12-19T16:41:42.430Z,83.40
2017-12-19T16:44:10.592Z,83.10
2017-12-19T16:46:38.753Z,82.80
2017-12-19T16:49:06.904Z,83.20
2017-12-19T16:51:35.103Z,83.70
2017-12-19T16:54:03.249Z,81.00
2017-12-19T16:56:31.406Z,80.20
2017-12-19T16:58:59.547Z,78.10
2017-12-19T17:01:27.708Z,73.30
2017-12-19T17:03:55.854Z,77.70
2017-12-19T17:06:24.010Z,77.90
2017-12-19T17:08:52.184Z,77.90
2017-12-19T17:11:22.062Z,78.40
2017-12-19T17:13:50.232Z,77.90
2017-12-19T17:16:18.369Z,80.80
2017-12-19T17:18:46.537Z,82.70
2017-12-19T17:21:15.484Z,82.70
2017-12-19T17:23:43.648Z,82.70
2017-12-19T17:26:11.806Z,84.10
2017-12-19T17:28:39.988Z,83.70
2017-12-19T17:31:08.138Z,83.00
2017-12-19T17:33:36.320Z,83.10
2017-12-19T17:36:04.498Z,82.10
2017-12-19T17:38:32.655Z,80.00
2017-12-19T17:41:03.233Z,78.60
2017-12-19T17:43:31.613Z,78.60
2017-12-19T17:46:01.021Z,76.80
2017-12-19T17:48:29.989Z,75.60
2017-12-19T17:50:58.723Z,75.80
2017-12-19T17:53:26.873Z,79.50
2017-12-19T17:55:57.070Z,81.30
2017-12-19T17:58:25.229Z,81.30
2017-12-19T18:00:53.377Z,82.80
2017-12-19T18:03:21.546Z,83.60
2017-12-19T18:05:49.740Z,84.20
2017-12-19T18:08:18.661Z,84.00
2017-12-19T18:10:46.876Z,84.00
2017-12-19T18:13:15.045Z,80.40
2017-12-19T18:15:44.326Z,81.50
2017-12-19T18:18:12.502Z,80.10
2017-12-19T18:20:40.671Z,81.30
2017-12-19T18:23:08.832Z,82.50
2017-12-19T18:25:37.613Z,82.60
2017-12-19T18:28:05.777Z,80.80
2017-12-19T18:30:33.937Z,79.60
2017-12-19T18:33:02.101Z,80.90
2017-12-19T18:35:32.646Z,79.40
2017-12-19T18:38:01.579Z,80.80
2017-12-19T18:40:29.731Z,81.50
2017-12-19T18:42:57.886Z,81.50
2017-12-19T18:45:26.906Z,82.10
2017-12-19T18:47:55.065Z,82.10
2017-12-19T18:50:23.257Z,81.00
2017-12-19T18:52:51.439Z,80.90
2017-12-19T18:55:19.620Z,79.30
2017-12-19T18:57:47.772Z,80.50
2017-12-19T19:00:16.588Z,81.60
2017-12-19T19:02:44.737Z,82.40
2017-12-19T19:05:13.321Z,82.00
2017-12-19T19:07:41.470Z,82.40
2017-12-19T19:10:09.634Z,82.50
2017-12-19T19:12:37.785Z,82.90
2017-12-19T19:15:07.059Z,82.80
2017-12-19T19:17:35.227Z,82.00
2017-12-19T19:20:03.398Z,81.90
2017-12-19T19:22:31.574Z,79.00
2017-12-19T19:25:01.782Z,80.00
2017-12-19T19:27:29.980Z,79.90
2017-12-19T19:29:58.158Z,81.50
2017-12-19T19:32:27.331Z,79.40
2017-12-19T19:34:55.473Z,78.90
2017-12-19T19:37:23.666Z,80.20
2017-12-19T19:39:51.811Z,79.70
2017-12-19T19:42:20.743Z,80.10
2017-12-19T19:44:50.024Z,80.00
2017-12-19T19:47:19.610Z,78.70
2017-12-19T19:49:47.772Z,79.60
2017-12-19T19:52:15.947Z,79.80
2017-12-19T19:54:46.219Z,79.50
2017-12-19T19:57:14.365Z,79.40
2017-12-19T19:59:43.309Z,79.20
2017-12-19T20:02:11.461Z,79.20
2017-12-19T20:04:39.726Z,81.00
2017-12-19T20:07:07.876Z,82.30
2017-12-19T20:09:36.800Z,84.50
2017-12-19T20:12:04.957Z,84.60
2017-12-19T20:14:33.218Z,84.20
2017-12-19T20:17:01.381Z,83.80
2017-12-19T20:19:29.539Z,85.50
2017-12-19T20:21:57.695Z,84.30
2017-12-19T20:24:25.918Z,85.30
2017-12-19T20:26:54.080Z,84.00
2017-12-19T20:29:22.222Z,86.10
2017-12-19T20:31:50.368Z,84.40
2017-12-19T20:34:18.622Z,86.70
2017-12-19T20:36:46.796Z,87.10
2017-12-19T20:39:14.932Z,89.00
2017-12-19T20:41:43.093Z,87.20
2017-12-19T20:44:11.275Z,86.50
2017-12-19T20:46:39.446Z,87.20
2017-12-19T20:49:07.606Z,87.20
2017-12-19T20:51:35.762Z,88.00
2017-12-19T20:54:03.921Z,87.30
2017-12-19T20:56:32.105Z,87.20
2017-12-19T20:59:00.262Z,88.00
2017-12-19T21:01:28.431Z,88.40
2017-12-19T21:03:57.359Z,88.90
2017-12-19T21:06:25.518Z,89.00
2017-12-19T21:08:53.677Z,85.80
2017-12-19T21:11:21.955Z,87.10
2017-12-19T21:13:51.564Z,88.80
2017-12-19T21:16:19.726Z,88.80
2017-12-19T21:18:47.880Z,89.10
2017-12-19T21:21:16.032Z,89.30
2017-12-19T21:23:44.214Z,88.70
2017-12-19T21:26:12.432Z,87.10
2017-12-19T21:28:40.580Z,87.50
2017-12-19T21:31:09.509Z,88.50
2017-12-19T21:33:37.665Z,88.50
2017-12-19T21:36:06.184Z,88.40
2017-12-19T21:38:34.343Z,89.40
2017-12-19T21:41:03.238Z,89.70
2017-12-19T21:43:31.389Z,89.20
2017-12-19T21:45:59.697Z,89.20
2017-12-19T21:48:27.864Z,88.60
2017-12-19T21:50:56.039Z,88.70
2017-12-19T21:53:24.206Z,87.70
2017-12-19T21:55:52.372Z,85.90
2017-12-19T21:58:20.543Z,87.20
2017-12-19T22:00:48.733Z,85.90
2017-12-19T22:03:16.951Z,87.80
2017-12-19T22:05:45.102Z,87.30
2017-12-19T22:08:13.253Z,87.30
2017-12-19T22:10:42.133Z,88.20
2017-12-19T22:13:10.299Z,87.30
2017-12-19T22:15:41.879Z,88.50
2017-12-19T22:18:10.060Z,88.00
2017-12-19T22:20:39.021Z,86.60
2017-12-19T22:23:07.225Z,86.60
2017-12-19T22:25:35.396Z,86.40
2017-12-19T22:28:03.541Z,87.30
2017-12-19T22:30:32.489Z,85.90
2017-12-19T22:33:00.726Z,84.90
2017-12-19T22:35:28.929Z,82.90
2017-12-19T22:37:57.060Z,85.60
2017-12-19T22:40:25.234Z,87.10
2017-12-19T22:42:53.408Z,87.30
2017-12-19T22:45:24.647Z,87.30
2017-12-19T22:47:52.939Z,88.00
2017-12-19T22:50:21.157Z,87.30
2017-12-19T22:52:49.869Z,86.10
2017-12-19T22:55:18.264Z,86.60
2017-12-19T22:57:46.445Z,87.20
2017-12-19T23:00:14.621Z,87.60
2017-12-19T23:02:42.819Z,87.50
2017-12-19T23:05:12.102Z,87.90
2017-12-19T23:07:40.254Z,88.70
2017-12-19T23:10:08.490Z,88.10
2017-12-19T23:12:36.644Z,87.20
2017-12-19T23:15:06.837Z,87.20
2017-12-19T23:17:35.091Z,86.90
2017-12-19T23:20:03.286Z,86.70
2017-12-19T23:22:31.440Z,87.70
2017-12-19T23:25:00.765Z,88.30
2017-12-19T23:27:29.692Z,87.30
2017-12-19T23:29:57.840Z,87.60
2017-12-19T23:32:26.015Z,87.30
2017-12-19T23:34:54.320Z,88.00
2017-12-19T23:37:22.496Z,85.40
2017-12-19T23:39:50.657Z,88.60
2017-12-19T23:42:18.805Z,89.00
2017-12-19T23:44:48.007Z,88.20
2017-12-19T23:47:16.161Z,87.50
2017-12-19T23:49:44.327Z,87.40
2017-12-19T23:52:12.486Z,88.00
2017-12-19T23:54:40.696Z,89.00
2017-12-19T23:57:08.842Z,89.10
2017-12-19T23:59:37.004Z,88.20
